Time;durP1;ratioP1;P1;durP2;ratioP2;P2;SDS_P1;SDS_P2;PMS_P1;PMS_P2;Temp;Humidity;BMP_temperature;BMP_pressure;BME280_temperature;BME280_humidity;BME280_pressure;Samples;Min_cycle;Max_cycle;Signal;HPM_P1;HPM_P2
2021/08/05 00:02:08;;;;;;;15.73;12.82;;;;;;;14.79;85.55;101333.94;5047446;28;20071;-67
2021/08/05 00:04:33;;;;;;;17.15;13.63;;;;;;;14.77;85.15;101335.84;5055568;28;20033;-65
2021/08/05 00:06:59;;;;;;;20.05;14.82;;;;;;;14.71;85.38;101337.03;5055848;28;20048;-68
2021/08/05 00:09:24;;;;;;;16.80;13.63;;;;;;;14.65;85.75;101332.03;5055502;28;20068;-61
2021/08/05 00:11:49;;;;;;;18.50;12.80;;;;;;;14.65;85.67;101342.69;5055473;28;20489;-69
2021/08/05 00:14:15;;;;;;;14.82;12.10;;;;;;;14.63;85.49;101322.34;5055618;28;20023;-64
2021/08/05 00:16:40;;;;;;;17.20;14.50;;;;;;;14.59;85.53;101330.53;5055573;28;20079;-69
2021/08/05 00:19:05;;;;;;;19.20;14.43;;;;;;;14.57;85.70;101326.22;5055205;28;20044;-68
2021/08/05 00:21:31;;;;;;;17.08;13.25;;;;;;;14.56;85.80;101320.00;5055221;28;20021;-69
2021/08/05 00:23:57;;;;;;;18.15;14.90;;;;;;;14.52;85.67;101322.94;5055670;28;20017;-67
2021/08/05 00:26:22;;;;;;;17.10;13.57;;;;;;;14.48;86.03;101308.91;5055368;28;20427;-62
2021/08/05 00:28:47;;;;;;;23.02;14.30;;;;;;;14.45;86.12;101311.75;5055220;28;20029;-62
2021/08/05 00:31:13;;;;;;;17.80;13.95;;;;;;;14.48;85.80;101310.75;5054549;28;20024;-62
2021/08/05 00:33:39;;;;;;;20.02;15.50;;;;;;;14.45;86.03;101311.75;5055064;28;20065;-62
2021/08/05 00:36:05;;;;;;;16.55;12.88;;;;;;;14.44;86.18;101312.69;5055245;28;20083;-63
2021/08/05 00:38:30;;;;;;;18.92;15.05;;;;;;;14.39;86.34;101304.94;5055255;28;20035;-63
2021/08/05 00:40:55;;;;;;;19.98;16.25;;;;;;;14.32;86.26;101298.25;5055127;28;20094;-66
2021/08/05 00:43:22;;;;;;;17.52;14.57;;;;;;;14.31;86.82;101303.63;5054737;28;20442;-65
2021/08/05 00:45:48;;;;;;;22.30;15.77;;;;;;;14.26;86.96;101306.56;5055073;28;20554;-69
2021/08/05 00:48:14;;;;;;;21.42;17.50;;;;;;;14.28;86.91;101296.66;5054752;28;20112;-69
2021/08/05 00:50:40;;;;;;;22.50;17.00;;;;;;;14.26;87.05;101298.56;5055227;28;20035;-68
2021/08/05 00:53:06;;;;;;;22.33;16.67;;;;;;;14.25;87.49;101296.84;5054154;28;20029;-62
2021/08/05 00:55:32;;;;;;;22.70;17.83;;;;;;;14.26;87.37;101296.75;5054974;28;20075;-68
2021/08/05 00:57:57;;;;;;;21.02;16.13;;;;;;;14.29;86.93;101289.53;5055252;28;20033;-69
2021/08/05 01:00:25;;;;;;;21.50;15.52;;;;;;;14.24;86.36;101284.44;5054635;28;20049;-69
2021/08/05 01:02:59;;;;;;;19.55;14.77;;;;;;;14.21;86.16;101287.28;5053851;28;20067;-63
2021/08/05 01:05:29;;;;;;;20.73;15.35;;;;;;;14.16;86.48;101286.69;5054179;28;20024;-68
2021/08/05 01:08:18;;;;;;;19.60;15.30;;;;;;;14.11;86.59;101292.22;5054740;28;20028;-69
2021/08/05 01:10:48;;;;;;;21.98;15.90;;;;;;;14.03;87.04;101287.31;5053434;28;20036;-69
2021/08/05 01:13:32;;;;;;;21.73;17.63;;;;;;;13.98;87.27;101286.69;5051764;28;20024;-68
2021/08/05 01:16:01;;;;;;;20.30;15.80;;;;;;;13.97;87.55;101281.44;5054724;28;20021;-69
2021/08/05 01:18:29;;;;;;;18.27;13.30;;;;;;;13.98;87.55;101288.47;5054407;28;20028;-63
2021/08/05 01:20:56;;;;;;;17.65;14.38;;;;;;;14.03;87.55;101287.31;5054323;28;20021;-67
2021/08/05 01:23:45;;;;;;;20.27;15.85;;;;;;;14.07;87.25;101286.19;5053796;28;20017;-69
2021/08/05 01:26:23;;;;;;;21.65;14.60;;;;;;;14.04;86.49;101280.16;5054510;28;20032;-69
2021/08/05 01:28:49;;;;;;;20.73;16.10;;;;;;;13.99;86.90;101282.22;5054334;28;20064;-69
2021/08/05 01:31:17;;;;;;;19.45;14.60;;;;;;;13.93;86.86;101272.75;5054216;28;20537;-66
2021/08/05 01:33:46;;;;;;;20.63;15.70;;;;;;;13.87;87.10;101273.91;5052208;28;20136;-68
2021/08/05 01:36:12;;;;;;;21.92;15.23;;;;;;;13.83;87.26;101272.34;5053867;28;20078;-68
2021/08/05 01:38:40;;;;;;;20.75;17.05;;;;;;;13.79;87.78;101273.47;5053904;28;20029;-64
2021/08/05 01:41:06;;;;;;;21.23;16.83;;;;;;;13.76;87.75;101271.81;5054180;28;20168;-64
2021/08/05 01:43:33;;;;;;;22.13;16.00;;;;;;;13.74;87.75;101270.19;5053888;28;20025;-61
2021/08/05 01:45:59;;;;;;;23.80;18.13;;;;;;;13.72;87.90;101267.59;5054124;28;20036;-65
2021/08/05 01:48:25;;;;;;;21.88;16.50;;;;;;;13.71;87.85;101265.88;5053793;28;20028;-69
2021/08/05 01:50:51;;;;;;;21.85;16.98;;;;;;;13.72;87.92;101272.94;5053559;28;20039;-67
2021/08/05 01:53:18;;;;;;;22.23;17.65;;;;;;;13.70;88.01;101263.31;5053812;28;20486;-69
2021/08/05 01:55:45;;;;;;;21.67;16.15;;;;;;;13.70;88.23;101263.31;5053833;28;20134;-69
2021/08/05 01:58:11;;;;;;;18.98;15.40;;;;;;;13.69;88.10;101254.44;5053781;28;20025;-69
2021/08/05 02:00:36;;;;;;;20.42;15.43;;;;;;;13.69;87.50;101256.25;5053291;28;20048;-68
2021/08/05 02:03:07;;;;;;;20.70;17.02;;;;;;;13.66;87.56;101259.06;5053615;28;20032;-63
2021/08/05 02:05:46;;;;;;;23.83;16.85;;;;;;;13.59;88.02;101255.84;5053043;28;20025;-62
2021/08/05 02:08:16;;;;;;;23.48;17.17;;;;;;;13.57;88.10;101260.41;5037680;28;20028;-68
2021/08/05 02:10:48;;;;;;;21.45;17.10;;;;;;;13.54;88.15;101248.13;5053031;28;20037;-66
2021/08/05 02:13:28;;;;;;;;;;;;;;;13.54;88.16;101255.22;5053555;28;20417;-62
2021/08/05 02:15:57;;;;;;;20.48;15.95;;;;;;;13.51;87.84;101250.91;5053295;28;20342;-67
2021/08/05 02:18:26;;;;;;;21.13;16.02;;;;;;;13.48;87.59;101247.53;5053016;28;20474;-68
2021/08/05 02:20:51;;;;;;;20.80;15.77;;;;;;;13.47;87.44;101244.03;5052862;28;20068;-69
2021/08/05 02:23:17;;;;;;;20.13;15.40;;;;;;;13.44;87.51;101242.41;5053295;28;20045;-68
2021/08/05 02:25:45;;;;;;;23.25;16.92;;;;;;;13.41;87.59;101239.91;5053010;28;20035;-64
2021/08/05 02:28:11;;;;;;;21.52;17.00;;;;;;;13.38;88.01;101244.50;5052463;28;20065;-67
2021/08/05 02:30:37;;;;;;;22.98;16.38;;;;;;;13.35;88.21;101234.84;5052894;28;20067;-65
2021/08/05 02:33:04;;;;;;;22.40;17.15;;;;;;;13.35;88.27;101229.53;5052135;28;20543;-67
2021/08/05 02:35:33;;;;;;;20.17;16.23;;;;;;;13.36;88.02;101222.41;5052258;28;20024;-63
2021/08/05 02:37:59;;;;;;;22.45;16.23;;;;;;;13.34;87.91;101225.13;5052708;28;20029;-63
2021/08/05 02:40:24;;;;;;;18.83;15.02;;;;;;;13.33;88.15;101227.88;5052954;28;20493;-66
2021/08/05 02:42:49;;;;;;;19.88;15.02;;;;;;;13.32;87.80;101221.69;5052572;28;20112;-68
2021/08/05 02:45:16;;;;;;;20.15;16.02;;;;;;;13.29;87.54;101216.53;5034956;28;20045;-68
2021/08/05 02:47:42;;;;;;;19.33;15.70;;;;;;;13.25;87.67;101220.28;5052760;28;20025;-62
2021/08/05 02:50:08;;;;;;;21.00;17.27;;;;;;;13.22;87.94;101223.97;5052240;28;20044;-68
2021/08/05 02:52:35;;;;;;;20.15;16.13;;;;;;;13.21;87.83;101218.69;5052238;28;20032;-68
2021/08/05 02:55:02;;;;;;;22.00;16.50;;;;;;;13.21;87.83;101214.25;5052702;28;20021;-63
2021/08/05 02:57:29;;;;;;;19.65;15.32;;;;;;;13.22;87.60;101216.00;5052839;28;20021;-68
2021/08/05 02:59:54;;;;;;;19.63;15.75;;;;;;;13.20;87.74;101217.00;5051515;28;20076;-62
2021/08/05 03:02:19;;;;;;;23.63;16.75;;;;;;;13.18;88.42;101203.75;5052252;28;20056;-67
2021/08/05 03:04:47;;;;;;;22.33;16.85;;;;;;;13.19;88.93;101208.16;5052702;28;20040;-68
2021/08/05 03:07:12;;;;;;;22.63;17.70;;;;;;;13.21;89.01;101213.38;5052291;28;20032;-63
2021/08/05 03:09:37;;;;;;;22.08;17.20;;;;;;;13.22;88.49;101210.66;5052099;28;20023;-68
2021/08/05 03:12:03;;;;;;;24.45;16.40;;;;;;;13.23;88.43;101222.16;5051730;28;20035;-65
2021/08/05 03:14:28;;;;;;;22.73;17.42;;;;;;;13.23;88.08;101211.53;5050654;28;20032;-66
2021/08/05 03:16:54;;;;;;;22.67;17.45;;;;;;;13.21;88.17;101216.03;5052415;28;20379;-63
2021/08/05 03:19:19;;;;;;;25.13;18.90;;;;;;;13.18;88.65;101214.41;5052481;28;20332;-68
2021/08/05 03:21:44;;;;;;;26.25;20.02;;;;;;;13.18;88.89;101213.53;5051201;28;20501;-63
2021/08/05 03:24:10;;;;;;;24.40;18.85;;;;;;;13.19;88.65;101213.47;5050338;28;20381;-64
2021/08/05 03:26:35;;;;;;;24.92;18.67;;;;;;;13.22;88.85;101213.31;5052109;28;20494;-63
2021/08/05 03:29:00;;;;;;;24.33;18.17;;;;;;;13.26;88.82;101214.88;5052264;28;20032;-64
2021/08/05 03:31:26;;;;;;;25.77;18.13;;;;;;;13.30;88.88;101215.59;5052103;28;20111;-63
2021/08/05 03:33:51;;;;;;;23.63;18.45;;;;;;;13.33;88.57;101209.28;5050599;28;20044;-62
2021/08/05 03:36:16;;;;;;;22.30;17.35;;;;;;;13.34;88.36;101205.66;5052013;28;20059;-63
2021/08/05 03:38:42;;;;;;;24.27;17.85;;;;;;;13.38;88.13;101212.59;5052018;28;20371;-69
2021/08/05 03:41:07;;;;;;;26.95;19.38;;;;;;;13.37;87.83;101201.06;5052177;28;20029;-68
2021/08/05 03:43:33;;;;;;;27.27;20.38;;;;;;;13.38;87.99;101202.78;5050779;28;20166;-69
2021/08/05 03:45:59;;;;;;;26.05;19.65;;;;;;;13.40;87.85;101195.63;5052096;28;20119;-68
2021/08/05 03:48:24;;;;;;;25.10;19.25;;;;;;;13.41;88.01;101202.66;5051852;28;20498;-63
2021/08/05 03:50:50;;;;;;;26.58;18.00;;;;;;;13.46;88.07;101205.06;5051995;28;20021;-63
2021/08/05 03:53:15;;;;;;;26.38;18.42;;;;;;;13.51;87.84;101202.19;5051822;28;20060;-62
2021/08/05 03:55:40;;;;;;;25.40;19.42;;;;;;;13.55;87.77;101195.75;5051389;28;20033;-61
2021/08/05 03:58:07;;;;;;;26.55;19.95;;;;;;;13.57;88.11;101191.22;5051776;28;20052;-62
2021/08/05 04:00:32;;;;;;;26.42;20.60;;;;;;;13.63;87.86;101188.22;5051907;28;20086;-62
2021/08/05 04:02:57;;;;;;;32.20;24.15;;;;;;;13.64;88.16;101186.44;5051554;28;20478;-68
2021/08/05 04:05:23;;;;;;;32.97;24.50;;;;;;;13.67;88.98;101186.25;5050923;28;20033;-69
2021/08/05 04:07:48;;;;;;;40.90;27.48;;;;;;;13.68;88.51;101180.88;5051613;28;20079;-64
2021/08/05 04:10:14;;;;;;;38.38;27.35;;;;;;;13.70;89.18;101178.97;5051409;28;20083;-62
2021/08/05 04:12:39;;;;;;;36.75;26.08;;;;;;;13.72;89.03;101181.56;5051694;28;20082;-63
2021/08/05 04:15:05;;;;;;;36.70;27.25;;;;;;;13.72;88.87;101179.78;5051201;28;20075;-68
2021/08/05 04:17:31;;;;;;;36.63;26.25;;;;;;;13.74;88.82;101180.53;5051469;28;20045;-63
2021/08/05 04:19:56;;;;;;;35.50;25.52;;;;;;;13.79;88.87;101176.78;5033471;28;20064;-62
2021/08/05 04:22:21;;;;;;;36.28;25.08;;;;;;;13.82;88.77;101176.63;5051576;28;20350;-68
2021/08/05 04:24:46;;;;;;;34.58;25.83;;;;;;;13.85;88.30;101163.13;5051335;28;20021;-62
2021/08/05 04:27:12;;;;;;;31.98;24.63;;;;;;;13.92;88.31;101173.38;5050738;28;20040;-63
2021/08/05 04:29:37;;;;;;;36.55;26.55;;;;;;;13.95;88.31;101169.69;5051297;28;20041;-65
2021/08/05 04:32:03;;;;;;;33.40;25.08;;;;;;;13.97;88.30;101172.28;5051423;28;20025;-62
2021/08/05 04:34:28;;;;;;;34.80;23.85;;;;;;;13.98;88.20;101176.66;5051188;28;20036;-64
2021/08/05 04:36:53;;;;;;;36.33;25.00;;;;;;;14.03;88.36;101180.78;5050881;28;20048;-66
2021/08/05 04:39:20;;;;;;;31.05;24.08;;;;;;;14.06;88.63;101177.94;5051207;28;20451;-66
2021/08/05 04:41:45;;;;;;;32.58;24.42;;;;;;;14.11;88.63;101179.53;5051708;28;20033;-62
2021/08/05 04:44:11;;;;;;;31.08;22.50;;;;;;;14.19;88.38;101179.97;5051226;28;20040;-63
2021/08/05 04:46:37;;;;;;;33.05;23.90;;;;;;;14.28;88.23;101175.94;5052723;28;20106;-68
2021/08/05 04:49:02;;;;;;;32.38;24.40;;;;;;;14.33;88.25;101172.06;5053751;28;20448;-63
2021/08/05 04:51:28;;;;;;;31.70;24.52;;;;;;;14.38;88.44;101180.66;5053146;28;20100;-63
2021/08/05 04:53:54;;;;;;;37.35;25.05;;;;;;;14.45;88.55;101178.53;5053907;28;20025;-68
2021/08/05 04:56:20;;;;;;;34.83;25.38;;;;;;;14.53;88.52;101173.63;5044200;28;20087;-62
2021/08/05 04:58:45;;;;;;;33.30;24.83;;;;;;;14.63;88.25;101171.31;5049678;28;20486;-59
2021/08/05 05:01:10;;;;;;;30.30;23.60;;;;;;;14.68;88.06;101179.94;5054198;28;20110;-65
2021/08/05 05:03:36;;;;;;;36.97;25.92;;;;;;;14.74;87.96;101184.03;5054444;28;20021;-62
2021/08/05 05:06:02;;;;;;;30.70;23.95;;;;;;;14.77;88.08;101173.22;5054736;28;20104;-63
2021/08/05 05:08:27;;;;;;;30.55;23.73;;;;;;;14.80;87.43;101174.84;5054024;28;20112;-65
2021/08/05 05:10:56;;;;;;;31.38;24.85;;;;;;;14.82;86.95;101176.47;5053729;28;20478;-67
2021/08/05 05:13:21;;;;;;;34.40;24.15;;;;;;;14.85;86.63;101176.28;5054191;28;20024;-69
2021/08/05 05:15:47;;;;;;;31.83;25.17;;;;;;;14.85;86.56;101173.63;5054690;28;20108;-61
2021/08/05 05:18:16;;;;;;;37.00;26.00;;;;;;;14.88;86.48;101178.78;5054072;28;20028;-61
2021/08/05 05:20:42;;;;;;;35.70;26.88;;;;;;;14.93;86.49;101175.84;5053944;28;20056;-62
2021/08/05 05:23:08;;;;;;;34.28;26.55;;;;;;;14.98;86.43;101176.44;5054655;28;20458;-61
2021/08/05 05:25:34;;;;;;;37.53;26.58;;;;;;;15.02;86.24;101172.66;5054034;28;20467;-62
2021/08/05 05:28:00;;;;;;;38.35;28.27;;;;;;;15.06;86.14;101178.66;5053919;28;20032;-62
2021/08/05 05:30:26;;;;;;;38.78;28.73;;;;;;;15.11;86.02;101175.75;5054275;28;20032;-66
2021/08/05 05:32:51;;;;;;;40.47;28.92;;;;;;;15.15;86.20;101169.25;5054250;28;20378;-60
2021/08/05 05:35:19;;;;;;;38.22;28.98;;;;;;;15.20;86.26;101177.84;5054054;28;20079;-62
2021/08/05 05:37:46;;;;;;;41.05;30.02;;;;;;;15.25;85.95;101175.78;5053888;28;20119;-60
2021/08/05 05:40:12;;;;;;;38.40;29.08;;;;;;;15.28;85.91;101177.41;5053344;28;20470;-62
2021/08/05 05:42:38;;;;;;;41.97;29.30;;;;;;;15.31;85.80;101174.56;5054013;28;20459;-64
2021/08/05 05:45:04;;;;;;;41.60;29.88;;;;;;;15.31;85.77;101167.41;5053285;28;20033;-61
2021/08/05 05:47:30;;;;;;;35.90;27.85;;;;;;;15.32;85.47;101168.25;5054181;28;20032;-69
2021/08/05 05:49:55;;;;;;;39.53;30.73;;;;;;;15.35;85.30;101168.94;5053794;28;20021;-62
2021/08/05 05:52:21;;;;;;;42.45;31.83;;;;;;;15.45;85.87;101161.25;5052276;28;20037;-62
2021/08/05 05:54:46;;;;;;;36.22;28.02;;;;;;;15.60;85.20;101166.59;5054042;28;20029;-63
2021/08/05 05:57:12;;;;;;;41.13;30.50;;;;;;;15.63;84.47;101159.28;5053438;28;20434;-62
2021/08/05 05:59:37;;;;;;;42.28;30.67;;;;;;;15.65;84.38;101157.38;5054021;28;20033;-65
2021/08/05 06:02:03;;;;;;;41.13;30.85;;;;;;;15.70;84.54;101154.41;5052739;28;20491;-61
2021/08/05 06:04:28;;;;;;;41.20;30.73;;;;;;;15.73;84.49;101157.75;5053695;28;20029;-62
2021/08/05 06:06:54;;;;;;;40.80;31.42;;;;;;;15.77;84.51;101152.22;5048237;28;20082;-63
2021/08/05 06:09:19;;;;;;;40.40;30.35;;;;;;;15.82;84.31;101160.81;5045980;28;20032;-64
2021/08/05 06:11:45;;;;;;;35.65;28.98;;;;;;;15.89;83.90;101155.03;5034741;28;20510;-60
2021/08/05 06:14:10;;;;;;;38.25;29.85;;;;;;;15.98;83.16;101168.75;5042856;28;20025;-62
2021/08/05 06:16:35;;;;;;;33.88;27.25;;;;;;;16.01;82.21;101169.44;5052504;28;20039;-62
2021/08/05 06:19:02;;;;;;;37.05;29.17;;;;;;;16.02;82.54;101151.56;5052684;28;20021;-62
2021/08/05 06:21:27;;;;;;;38.28;29.20;;;;;;;15.94;83.25;101153.88;5049629;28;20017;-62
2021/08/05 06:23:52;;;;;;;36.60;28.70;;;;;;;15.91;82.99;101154.94;5050755;28;20024;-60
2021/08/05 06:26:22;;;;;;;37.15;28.50;;;;;;;15.85;83.52;101156.16;5053067;28;20021;-63
2021/08/05 06:28:48;;;;;;;35.42;28.10;;;;;;;15.88;83.91;101160.44;5052366;28;20394;-62
2021/08/05 06:31:15;;;;;;;35.92;28.98;;;;;;;15.94;84.07;101156.56;5052764;28;20025;-59
2021/08/05 06:33:41;;;;;;;38.20;28.95;;;;;;;15.94;83.62;101159.22;5053003;28;20037;-62
2021/08/05 06:36:06;;;;;;;40.17;29.70;;;;;;;15.98;83.42;101155.41;5052901;28;20539;-60
2021/08/05 06:38:31;;;;;;;35.47;28.55;;;;;;;16.05;83.35;101154.91;5052325;28;20086;-62
2021/08/05 06:40:57;;;;;;;36.25;28.55;;;;;;;16.13;82.58;101161.59;5052599;28;20033;-61
2021/08/05 06:43:22;;;;;;;34.97;28.73;;;;;;;16.22;82.88;101161.84;5052500;28;20096;-68
2021/08/05 06:45:47;;;;;;;36.75;29.23;;;;;;;16.34;82.72;101162.91;5051402;28;20048;-61
2021/08/05 06:48:13;;;;;;;34.38;28.27;;;;;;;16.46;82.16;101161.25;5053062;28;20075;-60
2021/08/05 06:50:38;;;;;;;35.47;28.30;;;;;;;16.54;82.04;101156.25;5042429;28;20513;-62
2021/08/05 06:53:03;;;;;;;34.92;27.98;;;;;;;16.73;82.16;101156.88;5046868;28;20163;-63
2021/08/05 06:55:29;;;;;;;33.65;27.00;;;;;;;16.87;80.81;101155.00;5049123;28;20119;-63
2021/08/05 06:57:54;;;;;;;32.00;27.15;;;;;;;16.97;80.29;101155.28;5048927;28;20024;-63
2021/08/05 07:00:19;;;;;;;31.73;26.38;;;;;;;17.04;80.14;101153.91;5044025;28;20099;-62
2021/08/05 07:02:44;;;;;;;31.02;25.23;;;;;;;17.12;79.82;101147.19;5029730;28;20293;-60
2021/08/05 07:05:10;;;;;;;31.10;23.90;;;;;;;17.27;79.04;101151.50;5029314;28;20454;-63
2021/08/05 07:07:36;;;;;;;28.88;23.92;;;;;;;17.43;78.52;101151.31;5027260;28;20045;-61
2021/08/05 07:10:03;;;;;;;29.00;24.83;;;;;;;17.59;77.93;101156.44;5028137;28;20079;-62
2021/08/05 07:12:30;;;;;;;28.02;24.20;;;;;;;17.82;77.56;101157.50;5028092;28;20053;-62
2021/08/05 07:14:55;;;;;;;27.17;21.17;;;;;;;18.16;76.79;101143.59;5027711;28;20029;-62
2021/08/05 07:17:20;;;;;;;25.13;21.65;;;;;;;18.44;75.73;101144.22;5028584;28;20029;-62
2021/08/05 07:19:46;;;;;;;27.10;22.13;;;;;;;18.66;72.83;101149.72;5028453;28;20075;-61
2021/08/05 07:22:12;;;;;;;24.77;21.15;;;;;;;18.69;72.66;101151.31;5027703;28;20390;-62
2021/08/05 07:24:37;;;;;;;23.95;21.13;;;;;;;18.82;72.50;101152.16;5027129;28;20447;-60
2021/08/05 07:27:04;;;;;;;25.83;21.05;;;;;;;18.87;72.32;101135.69;5028037;28;20412;-63
2021/08/05 07:29:29;;;;;;;24.65;20.58;;;;;;;18.88;72.67;101144.59;5030262;28;20167;-63
2021/08/05 07:31:56;;;;;;;24.15;20.40;;;;;;;18.79;73.02;101141.63;5028233;28;20135;-63
2021/08/05 07:34:22;;;;;;;22.70;19.83;;;;;;;18.80;72.36;101134.44;5028202;28;20041;-62
2021/08/05 07:36:47;;;;;;;26.50;21.13;;;;;;;18.90;72.53;101142.66;5027582;28;20100;-62
2021/08/05 07:39:13;;;;;;;22.58;19.70;;;;;;;18.99;71.50;101133.94;5028023;28;20033;-61
2021/08/05 07:41:39;;;;;;;21.80;19.17;;;;;;;19.05;70.98;101140.66;5028419;28;20087;-63
2021/08/05 07:44:06;;;;;;;25.40;20.02;;;;;;;19.06;70.69;101132.50;5031013;28;20037;-62
2021/08/05 07:46:31;;;;;;;23.77;18.73;;;;;;;19.17;70.76;101139.75;5027661;28;20365;-62
2021/08/05 07:48:57;;;;;;;23.05;19.33;;;;;;;19.28;70.41;101131.72;5005361;28;20053;-61
2021/08/05 07:51:22;;;;;;;21.45;17.17;;;;;;;19.37;70.13;101121.22;5024915;28;20037;-62
2021/08/05 07:53:47;;;;;;;17.25;13.82;;;;;;;19.60;68.92;101136.41;5035998;28;20025;-62
2021/08/05 07:56:13;;;;;;;21.10;16.08;;;;;;;19.69;67.76;101128.59;5048917;28;20052;-60
2021/08/05 07:58:38;;;;;;;18.48;14.73;;;;;;;19.80;67.25;101120.53;5031386;28;20087;-61
2021/08/05 08:01:04;;;;;;;17.75;15.63;;;;;;;19.90;67.44;101120.72;5039102;28;20092;-61
2021/08/05 08:03:29;;;;;;;17.40;14.82;;;;;;;19.85;66.70;101128.25;5047181;28;20120;-62
2021/08/05 08:05:55;;;;;;;18.35;15.52;;;;;;;19.83;67.30;101124.84;5047995;28;20375;-63
2021/08/05 08:08:20;;;;;;;17.60;13.75;;;;;;;19.94;66.51;101125.69;5047487;28;20105;-63
2021/08/05 08:10:46;;;;;;;16.00;13.35;;;;;;;20.11;64.72;101131.53;5047913;28;20060;-61
2021/08/05 08:13:11;;;;;;;17.25;13.57;;;;;;;20.21;64.32;101124.44;5047472;28;20025;-62
2021/08/05 08:15:36;;;;;;;16.13;14.32;;;;;;;20.28;65.47;101127.47;5047328;28;20117;-62
2021/08/05 08:18:02;;;;;;;15.80;13.02;;;;;;;20.43;63.01;101128.06;5047269;28;20064;-62
2021/08/05 08:20:27;;;;;;;17.17;13.80;;;;;;;20.48;62.66;101128.53;5050133;28;20033;-62
2021/08/05 08:22:53;;;;;;;16.08;12.50;;;;;;;20.55;62.24;101128.88;5051424;28;20065;-67
2021/08/05 08:25:18;;;;;;;17.45;13.48;;;;;;;20.57;61.55;101127.78;5052270;28;20025;-61
2021/08/05 08:27:44;;;;;;;13.88;12.45;;;;;;;20.49;63.04;101124.00;5051941;28;20104;-61
2021/08/05 08:30:13;;;;;;;14.60;11.27;;;;;;;20.70;62.51;101124.94;5049784;28;20064;-62
2021/08/05 08:32:39;;;;;;;15.68;13.82;;;;;;;20.44;62.45;101116.34;5050335;28;20374;-60
2021/08/05 08:35:05;;;;;;;14.07;11.95;;;;;;;20.58;61.99;101118.72;5048869;28;20033;-63
2021/08/05 08:37:30;;;;;;;14.60;11.88;;;;;;;20.74;61.42;101114.78;5037739;28;20025;-62
2021/08/05 08:39:56;;;;;;;15.68;13.00;;;;;;;21.01;62.42;101118.81;5044884;28;20021;-62
2021/08/05 08:42:21;;;;;;;17.63;12.82;;;;;;;21.42;60.35;101117.97;5047262;28;20040;-65
2021/08/05 08:44:47;;;;;;;18.42;13.68;;;;;;;21.30;59.31;101119.03;5050036;28;20430;-62
2021/08/05 08:47:13;;;;;;;16.77;12.57;;;;;;;21.18;59.81;101117.41;5043738;28;20099;-62
2021/08/05 08:49:42;;;;;;;16.02;13.25;;;;;;;21.12;60.14;101116.09;5048590;28;20033;-61
2021/08/05 08:52:08;;;;;;;14.18;12.68;;;;;;;21.03;60.03;101117.72;5050905;28;20025;-61
2021/08/05 08:54:40;;;;;;;14.90;11.63;;;;;;;21.37;60.62;101122.03;5039026;28;20078;-61
2021/08/05 08:57:06;;;;;;;15.18;11.70;;;;;;;22.07;56.93;101109.66;5050570;28;20172;-63
2021/08/05 08:59:33;;;;;;;13.70;11.30;;;;;;;23.42;51.49;101099.22;5050644;28;20213;-62
2021/08/05 09:01:59;;;;;;;14.63;10.85;;;;;;;24.52;48.14;101111.06;5048677;28;20171;-62
2021/08/05 09:04:25;;;;;;;17.13;11.23;;;;;;;25.14;45.93;101102.13;5050230;28;20187;-62
2021/08/05 09:06:50;;;;;;;13.88;10.73;;;;;;;25.65;44.41;101097.75;5050113;28;20122;-62
2021/08/05 09:09:16;;;;;;;12.85;10.18;;;;;;;26.23;45.26;101100.72;5050462;28;20065;-60
2021/08/05 09:11:42;;;;;;;11.45;8.77;;;;;;;27.11;42.03;101090.28;5043434;28;20108;-62
2021/08/05 09:14:07;;;;;;;13.18;11.13;;;;;;;27.11;39.96;101091.13;5050187;28;20534;-62
2021/08/05 09:16:34;;;;;;;12.38;10.95;;;;;;;27.29;38.94;101084.63;5050133;28;20044;-62
2021/08/05 09:19:08;;;;;;;14.45;11.10;;;;;;;27.40;38.92;101087.00;5050528;28;20104;-62
2021/08/05 09:21:34;;;;;;;13.95;11.90;;;;;;;27.34;39.70;101079.53;5036162;28;20431;-63
2021/08/05 09:24:06;;;;;;;13.25;10.75;;;;;;;27.58;39.40;101075.91;5050403;28;20041;-62
2021/08/05 09:26:32;;;;;;;16.48;13.15;;;;;;;27.69;38.57;101074.69;5050022;28;20516;-62
2021/08/05 09:29:19;;;;;;;13.45;10.45;;;;;;;28.06;39.09;101073.19;5050243;28;20157;-62
2021/08/05 09:31:59;;;;;;;12.98;11.63;;;;;;;28.46;37.54;101067.66;5048389;28;20060;-61
2021/08/05 09:34:33;;;;;;;13.57;9.93;;;;;;;28.96;36.83;101068.13;5049539;28;20046;-63
2021/08/05 09:37:04;;;;;;;13.77;11.32;;;;;;;29.08;36.45;101057.63;5049693;28;20108;-63
2021/08/05 09:39:32;;;;;;;16.45;13.25;;;;;;;28.66;34.91;101061.72;5050130;28;20025;-67
2021/08/05 09:42:02;;;;;;;15.20;12.32;;;;;;;28.65;36.99;101060.03;5050024;28;20063;-63
2021/08/05 09:44:43;;;;;;;15.70;10.70;;;;;;;28.85;36.42;101054.94;5049777;28;20121;-62
2021/08/05 09:47:20;;;;;;;17.35;13.75;;;;;;;28.54;36.01;101053.97;5049665;28;20068;-62
2021/08/05 09:49:45;;;;;;;13.85;11.90;;;;;;;28.77;36.32;101054.00;5049595;28;20091;-60
2021/08/05 09:52:11;;;;;;;14.10;11.77;;;;;;;29.18;35.36;101060.06;5049888;28;20021;-62
2021/08/05 09:54:48;;;;;;;12.50;10.23;;;;;;;29.01;33.55;101057.50;5048666;28;20037;-62
2021/08/05 09:57:41;;;;;;;12.07;9.23;;;;;;;29.24;34.01;101060.16;5049818;28;20033;-61
2021/08/05 10:00:15;;;;;;;12.95;9.73;;;;;;;29.06;34.94;101051.50;5048793;28;20401;-63
2021/08/05 10:02:47;;;;;;;12.27;9.93;;;;;;;29.32;34.56;101050.25;5049503;28;20063;-62
2021/08/05 10:05:13;;;;;;;30.55;25.05;;;;;;;29.38;34.73;101046.78;5049281;28;20025;-62
2021/08/05 10:07:51;;;;;;;12.65;10.27;;;;;;;29.53;34.92;101044.06;5049410;28;20106;-63
2021/08/05 10:10:19;;;;;;;11.90;10.50;;;;;;;29.59;35.40;101041.41;5049379;28;20075;-62
2021/08/05 10:12:53;;;;;;;11.43;9.88;;;;;;;29.11;34.42;101040.91;5049466;28;20124;-61
2021/08/05 10:15:19;;;;;;;12.68;9.88;;;;;;;29.57;33.80;101045.34;5049492;28;20017;-64
2021/08/05 10:17:46;;;;;;;11.95;10.68;;;;;;;29.05;33.16;101036.19;5049268;28;20123;-61
2021/08/05 10:20:13;;;;;;;13.60;11.30;;;;;;;29.08;33.70;101033.94;5049095;28;20069;-62
2021/08/05 10:22:40;;;;;;;11.55;10.35;;;;;;;29.69;33.45;101037.53;5047172;28;20713;-62
2021/08/05 10:25:09;;;;;;;12.68;9.77;;;;;;;29.50;32.67;101028.03;5040917;28;20403;-62
2021/08/05 10:27:35;;;;;;;11.23;9.77;;;;;;;29.09;34.04;101029.31;5050654;28;20067;-63
2021/08/05 10:30:01;;;;;;;14.30;11.55;;;;;;;29.13;33.12;101036.09;5052579;28;20036;-73
2021/08/05 10:32:26;;;;;;;13.57;10.30;;;;;;;28.69;33.83;101029.53;5053197;28;20029;-63
2021/08/05 10:34:52;;;;;;;13.10;10.75;;;;;;;27.88;35.71;101031.75;5053252;28;20127;-63
2021/08/05 10:37:18;;;;;;;13.15;11.30;;;;;;;27.48;36.01;101031.75;5052913;28;20386;-62
2021/08/05 10:39:45;;;;;;;13.35;10.07;;;;;;;27.16;37.10;101022.63;5052710;28;20107;-60
2021/08/05 10:42:18;;;;;;;11.85;8.43;;;;;;;28.06;35.41;101024.19;5052697;28;20021;-62
2021/08/05 10:44:47;;;;;;;10.43;9.10;;;;;;;28.22;35.27;101020.50;5052931;28;20032;-62
2021/08/05 10:47:17;;;;;;;12.98;8.70;;;;;;;28.84;35.51;101018.69;5052465;28;20441;-62
2021/08/05 10:49:46;;;;;;;10.48;9.00;;;;;;;28.83;34.20;101010.69;5052649;28;20445;-62
2021/08/05 10:52:40;;;;;;;11.57;9.13;;;;;;;28.53;34.69;101003.25;5052845;28;20467;-62
2021/08/05 10:55:23;;;;;;;10.77;9.07;;;;;;;27.74;36.76;101001.56;5052641;28;20057;-65
2021/08/05 10:58:17;;;;;;;9.25;8.30;;;;;;;27.40;40.44;101000.00;5052198;28;20021;-63
2021/08/05 11:00:52;;;;;;;12.68;10.07;;;;;;;28.42;36.98;100993.63;5052700;28;20629;-65
2021/08/05 11:03:32;;;;;;;12.30;9.93;;;;;;;29.28;34.09;100992.50;5052244;28;20112;-62
2021/08/05 11:05:59;;;;;;;10.95;8.50;;;;;;;29.10;36.25;100984.66;5052410;28;20021;-63
2021/08/05 11:08:27;;;;;;;13.77;11.65;;;;;;;28.27;36.19;100988.16;5049215;28;20085;-62
2021/08/05 11:11:17;;;;;;;13.10;11.48;;;;;;;27.30;39.15;100983.00;5047333;28;20390;-64